Time,TemperatureF,DewpointF,PressureIn,WindDirection,WindDirectionDegrees,WindSpeedMPH,WindSpeedGustMPH,Humidity,HourlyPrecipIn,Conditions,Clouds,dailyrainin,SoftwareType,DateUTC
2013-02-07 00:02:00,32.1,32.0,29.94,SSE,161,0.0,0.0,99,0.00,,,0.00,weatherlink.com 1.10,2013-02-07 08:02:00,
2013-02-07 00:17:00,32.2,32.0,29.93,SSE,161,0.0,0.0,99,0.00,,,0.00,weatherlink.com 1.10,2013-02-07 08:17:00,
2013-02-07 00:32:00,32.2,32.0,29.93,SSE,161,0.0,0.0,99,0.00,,,0.00,weatherlink.com 1.10,2013-02-07 08:32:00,
2013-02-07 00:47:00,32.3,32.0,29.93,SSE,161,0.0,0.0,99,0.00,,,0.00,weatherlink.com 1.10,2013-02-07 08:47:00,
2013-02-07 01:02:00,32.3,32.0,29.92,SSE,161,0.0,0.0,99,0.00,,,0.00,weatherlink.com 1.10,2013-02-07 09:02:00,
2013-02-07 01:17:00,32.3,32.0,29.92,SSE,161,0.0,0.0,99,0.00,,,0.00,weatherlink.com 1.10,2013-02-07 09:17:00,
2013-02-07 01:32:00,32.2,32.0,29.92,SSE,161,0.0,0.0,99,0.00,,,0.00,weatherlink.com 1.10,2013-02-07 09:32:00,
2013-02-07 01:47:00,32.2,32.0,29.91,SSE,161,0.0,0.0,99,0.00,,,0.00,weatherlink.com 1.10,2013-02-07 09:47:00,
2013-02-07 02:02:00,32.2,32.0,29.91,SSE,161,0.0,0.0,99,0.00,,,0.00,weatherlink.com 1.10,2013-02-07 10:02:00,
2013-02-07 02:17:00,32.2,32.0,29.91,SSE,161,0.0,0.0,99,0.00,,,0.00,weatherlink.com 1.10,2013-02-07 10:17:00,
2013-02-07 02:32:00,32.1,32.0,29.91,SSE,161,0.0,0.0,99,0.00,,,0.00,weatherlink.com 1.10,2013-02-07 10:32:00,
2013-02-07 02:47:00,32.1,32.0,29.90,SSE,161,0.0,0.0,99,0.00,,,0.00,weatherlink.com 1.10,2013-02-07 10:47:00,
2013-02-07 03:02:00,32.1,32.0,29.89,SSE,161,0.0,0.0,99,0.00,,,0.00,weatherlink.com 1.10,2013-02-07 11:02:00,
2013-02-07 03:17:00,32.0,32.0,29.89,SSE,161,0.0,0.0,99,0.00,,,0.00,weatherlink.com 1.10,2013-02-07 11:17:00,
2013-02-07 03:32:00,32.0,32.0,29.89,SSE,161,0.0,0.0,99,0.00,,,0.00,weatherlink.com 1.10,2013-02-07 11:32:00,
2013-02-07 03:47:00,32.1,32.0,29.89,SSE,161,0.0,0.0,99,0.00,,,0.00,weatherlink.com 1.10,2013-02-07 11:47:00,
2013-02-07 04:02:00,32.1,32.0,29.89,SSE,161,0.0,0.0,99,0.00,,,0.00,weatherlink.com 1.10,2013-02-07 12:02:00,
2013-02-07 04:17:00,32.1,32.0,29.88,SSE,161,0.0,0.0,99,0.00,,,0.00,weatherlink.com 1.10,2013-02-07 12:17:00,
2013-02-07 04:33:00,32.1,32.0,29.89,SSE,161,0.0,0.0,99,0.00,,,0.00,weatherlink.com 1.10,2013-02-07 12:33:00,
2013-02-07 04:47:00,32.1,32.0,29.89,SSE,161,0.0,0.0,99,0.00,,,0.00,weatherlink.com 1.10,2013-02-07 12:47:00,
2013-02-07 05:02:00,32.1,32.0,29.90,SSE,161,0.0,0.0,99,0.00,,,0.00,weatherlink.com 1.10,2013-02-07 13:02:00,
2013-02-07 05:17:00,32.1,32.0,29.91,SSE,161,0.0,0.0,99,0.00,,,0.00,weatherlink.com 1.10,2013-02-07 13:17:00,
2013-02-07 05:32:00,32.2,32.0,29.92,SSE,161,0.0,0.0,99,0.00,,,0.00,weatherlink.com 1.10,2013-02-07 13:32:00,
2013-02-07 05:47:00,32.3,32.0,29.92,SSE,161,0.0,0.0,99,0.00,,,0.00,weatherlink.com 1.10,2013-02-07 13:47:00,
2013-02-07 06:02:00,32.3,32.0,29.92,SSE,161,0.0,0.0,99,0.00,,,0.00,weatherlink.com 1.10,2013-02-07 14:02:00,
2013-02-07 06:32:00,32.3,32.0,29.93,SSE,161,0.0,0.0,99,0.00,,,0.00,weatherlink.com 1.10,2013-02-07 14:32:00,
2013-02-07 06:47:00,32.3,32.0,29.93,SSE,161,0.0,0.0,99,0.00,,,0.00,weatherlink.com 1.10,2013-02-07 14:47:00,
2013-02-07 07:02:00,32.3,32.0,29.93,SSE,161,0.0,0.0,99,0.00,,,0.00,weatherlink.com 1.10,2013-02-07 15:02:00,
2013-02-07 07:17:00,32.2,32.0,29.94,SSE,161,0.0,0.0,99,0.00,,,0.00,weatherlink.com 1.10,2013-02-07 15:17:00,
2013-02-07 07:32:00,32.2,32.0,29.93,SSE,161,0.0,0.0,99,0.00,,,0.00,weatherlink.com 1.10,2013-02-07 15:32:00,
2013-02-07 07:47:00,32.2,32.0,29.95,SSE,161,0.0,0.0,99,0.00,,,0.00,weatherlink.com 1.10,2013-02-07 15:47:00,
2013-02-07 08:02:00,32.3,32.0,29.95,SSE,161,0.0,0.0,99,0.00,,,0.00,weatherlink.com 1.10,2013-02-07 16:02:00,
2013-02-07 08:17:00,32.4,32.0,29.95,SSE,161,0.0,0.0,99,0.00,,,0.00,weatherlink.com 1.10,2013-02-07 16:17:00,
2013-02-07 08:32:00,32.5,32.0,29.95,SSE,161,0.0,0.0,99,0.00,,,0.00,weatherlink.com 1.10,2013-02-07 16:32:00,
2013-02-07 08:47:00,32.7,33.0,29.96,SSE,161,0.0,0.0,100,0.00,,,0.00,weatherlink.com 1.10,2013-02-07 16:47:00,
2013-02-07 09:03:00,32.8,33.0,29.96,SSE,161,0.0,0.0,99,0.00,,,0.00,weatherlink.com 1.10,2013-02-07 17:03:00,
2013-02-07 09:17:00,32.9,33.0,29.96,SSE,161,0.0,1.0,99,0.00,,,0.00,weatherlink.com 1.10,2013-02-07 17:17:00,
2013-02-07 09:32:00,33.4,33.0,29.96,East,93,0.0,0.0,99,0.00,,,0.00,weatherlink.com 1.10,2013-02-07 17:32:00,
2013-02-07 09:49:00,34.0,34.0,29.96,East,94,0.0,0.0,99,0.00,,,0.00,weatherlink.com 1.10,2013-02-07 17:49:00,
2013-02-07 10:03:00,34.8,35.0,29.96,NNE,30,0.0,0.0,99,0.01,,,0.01,weatherlink.com 1.10,2013-02-07 18:03:00,
2013-02-07 10:18:00,35.6,36.0,29.97,NNE,31,0.0,0.0,100,0.02,,,0.02,weatherlink.com 1.10,2013-02-07 18:18:00,
2013-02-07 10:33:00,36.2,36.0,29.97,WSW,250,0.0,0.0,99,0.03,,,0.03,weatherlink.com 1.10,2013-02-07 18:33:00,
2013-02-07 10:48:00,36.9,36.0,29.98,SSW,208,0.0,2.0,98,0.03,,,0.03,weatherlink.com 1.10,2013-02-07 18:48:00,
2013-02-07 11:03:00,37.0,36.0,29.98,West,271,0.0,1.0,94,0.03,,,0.04,weatherlink.com 1.10,2013-02-07 19:03:00,
2013-02-07 11:18:00,37.1,35.0,29.98,South,179,0.0,3.0,91,0.02,,,0.04,weatherlink.com 1.10,2013-02-07 19:18:00,
2013-02-07 11:33:00,37.4,36.0,29.98,ENE,64,0.0,0.0,94,0.01,,,0.04,weatherlink.com 1.10,2013-02-07 19:33:00,
2013-02-07 11:48:00,37.5,36.0,29.98,ENE,68,0.0,1.0,95,0.01,,,0.04,weatherlink.com 1.10,2013-02-07 19:48:00,
2013-02-07 12:03:00,38.6,35.0,29.97,East,98,0.0,1.0,88,0.00,,,0.04,weatherlink.com 1.10,2013-02-07 20:03:00,
2013-02-07 12:18:00,39.2,36.0,29.98,North,360,0.0,3.0,89,0.00,,,0.04,weatherlink.com 1.10,2013-02-07 20:18:00,
2013-02-07 12:33:00,39.7,36.0,29.98,SE,128,0.0,4.0,85,0.00,,,0.04,weatherlink.com 1.10,2013-02-07 20:33:00,
2013-02-07 12:48:00,40.6,35.0,29.98,WNW,283,1.0,4.0,80,0.00,,,0.04,weatherlink.com 1.10,2013-02-07 20:48:00,
2013-02-07 13:03:00,40.3,32.0,29.97,ESE,120,0.0,1.0,73,0.00,,,0.04,weatherlink.com 1.10,2013-02-07 21:03:00,
2013-02-07 13:18:00,40.4,33.0,29.97,South,182,0.0,2.0,75,0.00,,,0.04,weatherlink.com 1.10,2013-02-07 21:18:00,
2013-02-07 13:33:00,40.0,33.0,29.97,NNE,31,0.0,2.0,75,0.00,,,0.04,weatherlink.com 1.10,2013-02-07 21:33:00,
2013-02-07 13:48:00,40.1,32.0,29.97,NNE,17,2.0,4.0,72,0.00,,,0.04,weatherlink.com 1.10,2013-02-07 21:48:00,
2013-02-07 14:03:00,40.1,31.0,29.97,ESE,117,1.0,2.0,70,0.00,,,0.04,weatherlink.com 1.10,2013-02-07 22:03:00,
2013-02-07 14:18:00,41.3,30.0,29.96,ENE,58,1.0,1.0,65,0.00,,,0.04,weatherlink.com 1.10,2013-02-07 22:18:00,
2013-02-07 14:33:00,41.1,31.0,29.97,ENE,70,0.0,5.0,68,0.00,,,0.04,weatherlink.com 1.10,2013-02-07 22:33:00,
2013-02-07 14:48:00,40.5,31.0,29.97,NW,311,1.0,2.0,68,0.00,,,0.04,weatherlink.com 1.10,2013-02-07 22:48:00,
2013-02-07 15:03:00,40.0,31.0,29.97,East,79,0.0,4.0,70,0.00,,,0.04,weatherlink.com 1.10,2013-02-07 23:03:00,
2013-02-07 15:18:00,39.4,31.0,29.97,NNE,21,0.0,3.0,73,0.00,,,0.04,weatherlink.com 1.10,2013-02-07 23:18:00,
2013-02-07 15:33:00,39.2,31.0,29.98,NE,42,0.0,2.0,72,0.00,,,0.04,weatherlink.com 1.10,2013-02-07 23:33:00,
2013-02-07 15:48:00,39.3,31.0,29.98,SW,224,0.0,2.0,72,0.00,,,0.04,weatherlink.com 1.10,2013-02-07 23:48:00,
2013-02-07 16:03:00,38.6,31.0,29.99,NE,39,0.0,3.0,73,0.00,,,0.04,weatherlink.com 1.10,2013-02-08 00:03:00,
2013-02-07 16:18:00,38.2,30.0,29.99,East,88,0.0,0.0,72,0.00,,,0.04,weatherlink.com 1.10,2013-02-08 00:18:00,
2013-02-07 16:33:00,37.6,30.0,30.00,East,88,0.0,0.0,74,0.00,,,0.04,weatherlink.com 1.10,2013-02-08 00:33:00,
2013-02-07 16:48:00,37.2,31.0,30.01,East,87,0.0,0.0,77,0.00,,,0.04,weatherlink.com 1.10,2013-02-08 00:48:00,
2013-02-07 17:03:00,36.7,31.0,30.02,SSW,200,0.0,1.0,79,0.00,,,0.04,weatherlink.com 1.10,2013-02-08 01:03:00,
2013-02-07 17:18:00,35.9,30.0,30.03,ESE,115,0.0,1.0,80,0.00,,,0.04,weatherlink.com 1.10,2013-02-08 01:18:00,
2013-02-07 17:33:00,34.8,30.0,30.03,ESE,115,0.0,0.0,83,0.00,,,0.04,weatherlink.com 1.10,2013-02-08 01:33:00,
2013-02-07 17:48:00,33.7,30.0,30.04,ESE,115,0.0,0.0,85,0.00,,,0.04,weatherlink.com 1.10,2013-02-08 01:48:00,
2013-02-07 18:03:00,32.8,29.0,30.04,ESE,115,0.0,0.0,87,0.00,,,0.04,weatherlink.com 1.10,2013-02-08 02:03:00,
2013-02-07 18:18:00,31.9,29.0,30.05,ESE,115,0.0,0.0,89,0.00,,,0.04,weatherlink.com 1.10,2013-02-08 02:18:00,
2013-02-07 18:34:00,31.1,28.0,30.05,ESE,115,0.0,0.0,89,0.00,,,0.04,weatherlink.com 1.10,2013-02-08 02:34:00,
2013-02-07 18:48:00,30.4,28.0,30.06,ESE,115,0.0,0.0,90,0.00,,,0.04,weatherlink.com 1.10,2013-02-08 02:48:00,
2013-02-07 19:04:00,29.7,27.0,30.06,ESE,115,0.0,0.0,91,0.00,,,0.04,weatherlink.com 1.10,2013-02-08 03:04:00,
2013-02-07 19:19:00,29.1,27.0,30.07,ESE,115,0.0,0.0,92,0.00,,,0.04,weatherlink.com 1.10,2013-02-08 03:19:00,
2013-02-07 19:34:00,28.7,27.0,30.07,ESE,115,0.0,0.0,93,0.00,,,0.04,weatherlink.com 1.10,2013-02-08 03:34:00,
2013-02-07 19:49:00,28.4,27.0,30.08,ESE,115,0.0,0.0,93,0.00,,,0.04,weatherlink.com 1.10,2013-02-08 03:49:00,
2013-02-07 20:04:00,28.1,27.0,30.08,ESE,115,0.0,0.0,94,0.00,,,0.04,weatherlink.com 1.10,2013-02-08 04:04:00,
2013-02-07 20:19:00,27.9,27.0,30.09,ESE,115,0.0,0.0,95,0.00,,,0.04,weatherlink.com 1.10,2013-02-08 04:19:00,
2013-02-07 20:34:00,27.8,27.0,30.09,ESE,115,0.0,0.0,95,0.00,,,0.04,weatherlink.com 1.10,2013-02-08 04:34:00,
2013-02-07 20:49:00,27.6,26.0,30.09,ESE,115,0.0,0.0,95,0.00,,,0.04,weatherlink.com 1.10,2013-02-08 04:49:00,
2013-02-07 21:04:00,27.5,27.0,30.09,ESE,115,0.0,0.0,96,0.00,,,0.04,weatherlink.com 1.10,2013-02-08 05:04:00,
2013-02-07 21:19:00,27.4,26.0,30.10,ESE,115,0.0,0.0,96,0.00,,,0.04,weatherlink.com 1.10,2013-02-08 05:19:00,
2013-02-07 21:34:00,27.2,26.0,30.10,ESE,115,0.0,0.0,96,0.00,,,0.04,weatherlink.com 1.10,2013-02-08 05:34:00,
2013-02-07 21:49:00,27.2,26.0,30.11,ESE,115,0.0,0.0,96,0.00,,,0.04,weatherlink.com 1.10,2013-02-08 05:49:00,
2013-02-07 22:04:00,27.2,26.0,30.11,ESE,115,0.0,0.0,95,0.00,,,0.04,weatherlink.com 1.10,2013-02-08 06:04:00,
2013-02-07 22:19:00,27.1,26.0,30.12,ESE,115,0.0,0.0,95,0.00,,,0.04,weatherlink.com 1.10,2013-02-08 06:19:00,
2013-02-07 22:34:00,27.0,26.0,30.12,ESE,115,0.0,0.0,95,0.00,,,0.04,weatherlink.com 1.10,2013-02-08 06:34:00,
2013-02-07 22:49:00,26.7,26.0,30.13,ESE,115,0.0,0.0,95,0.00,,,0.04,weatherlink.com 1.10,2013-02-08 06:49:00,
2013-02-07 23:04:00,26.5,26.0,30.13,ESE,115,0.0,0.0,96,0.00,,,0.04,weatherlink.com 1.10,2013-02-08 07:04:00,
2013-02-07 23:19:00,26.3,25.0,30.13,ESE,115,0.0,0.0,95,0.00,,,0.04,weatherlink.com 1.10,2013-02-08 07:19:00,
2013-02-07 23:34:00,26.0,25.0,30.14,ESE,115,0.0,0.0,95,0.00,,,0.04,weatherlink.com 1.10,2013-02-08 07:34:00,
2013-02-07 23:49:00,25.8,25.0,30.14,ESE,115,0.0,0.0,95,0.00,,,0.04,weatherlink.com 1.10,2013-02-08 07:49:00,